Time;durP1;ratioP1;P1;durP2;ratioP2;P2;SDS_P1;SDS_P2;PMS_P1;PMS_P2;Temp;Humidity;BMP_temperature;BMP_pressure;BME280_temperature;BME280_humidity;BME280_pressure;Samples;Min_cycle;Max_cycle;Signal;HPM_P1;HPM_P2
2023/08/20 00:00:55;;;;;;;10.52;2.80;;;24.90;99.70;;;;;;5006873;28;20034;-64
2023/08/20 00:03:21;;;;;;;10.05;2.58;;;24.90;99.80;;;;;;5007817;28;20531;-66
2023/08/20 00:05:47;;;;;;;12.60;2.58;;;24.90;99.80;;;;;;5009248;28;20076;-66
2023/08/20 00:08:12;;;;;;;13.25;2.97;;;25.00;99.90;;;;;;5009131;28;20030;-64
2023/08/20 00:10:38;;;;;;;9.32;2.80;;;25.00;99.90;;;;;;5008189;28;20061;-64
2023/08/20 00:13:04;;;;;;;11.75;2.55;;;25.00;99.90;;;;;;5007649;28;20101;-63
2023/08/20 00:15:30;;;;;;;11.93;2.95;;;25.00;99.90;;;;;;5008209;28;20022;-63
2023/08/20 00:17:56;;;;;;;10.07;2.50;;;25.00;99.90;;;;;;5008222;28;20033;-64
2023/08/20 00:20:22;;;;;;;6.95;2.28;;;25.00;99.90;;;;;;5007883;28;20447;-64
2023/08/20 00:22:48;;;;;;;12.05;2.58;;;24.90;99.90;;;;;;5008589;28;20068;-64
2023/08/20 00:25:15;;;;;;;9.45;2.42;;;24.90;99.90;;;;;;5009750;28;20029;-64
2023/08/20 00:27:41;;;;;;;18.40;2.53;;;25.00;99.90;;;;;;5008601;28;20026;-64
2023/08/20 00:30:07;;;;;;;10.00;2.35;;;25.00;99.90;;;;;;5009903;28;20109;-64
2023/08/20 00:32:33;;;;;;;10.50;2.35;;;25.00;99.90;;;;;;5009239;28;20034;-63
2023/08/20 00:34:58;;;;;;;8.63;2.25;;;25.00;99.90;;;;;;5009356;28;20030;-66
2023/08/20 00:37:25;;;;;;;8.48;2.00;;;25.00;99.90;;;;;;5009851;28;20033;-67
2023/08/20 00:39:50;;;;;;;8.68;1.90;;;25.00;99.90;;;;;;5009154;28;20037;-66
2023/08/20 00:42:16;;;;;;;13.90;2.90;;;25.00;99.90;;;;;;5009972;28;20435;-65
2023/08/20 00:44:44;;;;;;;12.05;3.60;;;25.00;99.90;;;;;;5009334;28;20018;-67
2023/08/20 00:47:10;;;;;;;8.73;2.17;;;25.00;99.90;;;;;;5009073;28;20029;-66
2023/08/20 00:49:36;;;;;;;8.80;2.30;;;25.10;99.90;;;;;;5009802;28;20480;-66
2023/08/20 00:52:03;;;;;;;6.85;2.17;;;25.10;99.90;;;;;;5009478;28;20041;-66
2023/08/20 00:54:29;;;;;;;7.45;2.00;;;25.10;99.90;;;;;;5009783;28;20512;-66
2023/08/20 00:56:55;;;;;;;9.40;2.58;;;25.10;99.90;;;;;;5009064;28;20233;-65
2023/08/20 00:59:20;;;;;;;9.00;2.45;;;25.10;99.90;;;;;;5009278;28;20080;-66
2023/08/20 01:01:46;;;;;;;9.98;2.13;;;25.10;99.90;;;;;;5009546;28;20257;-65
2023/08/20 01:04:12;;;;;;;10.73;2.97;;;25.10;99.90;;;;;;5007727;28;20069;-66
2023/08/20 01:06:53;;;;;;;10.63;2.25;;;25.10;99.90;;;;;;5008961;28;20075;-66
2023/08/20 01:09:36;;;;;;;6.68;2.25;;;25.10;99.90;;;;;;5009534;28;20061;-66
2023/08/20 01:12:03;;;;;;;10.80;2.78;;;25.10;99.90;;;;;;5009143;28;20550;-66
2023/08/20 01:14:29;;;;;;;8.95;2.05;;;25.10;99.90;;;;;;5009429;28;20496;-66
2023/08/20 01:16:55;;;;;;;8.68;2.17;;;25.10;99.90;;;;;;5008923;28;20029;-65
2023/08/20 01:19:22;;;;;;;7.97;2.08;;;25.10;99.90;;;;;;5007859;28;20121;-66
2023/08/20 01:21:53;;;;;;;7.75;2.05;;;25.20;99.90;;;;;;5009046;28;20025;-66
2023/08/20 01:24:46;;;;;;;7.30;2.28;;;25.10;99.90;;;;;;5012129;28;20026;-66
2023/08/20 01:27:52;;;;;;;9.05;1.88;;;25.10;99.90;;;;;;5013088;28;20029;-66
2023/08/20 01:30:20;;;;;;;6.47;2.30;;;25.20;99.90;;;;;;5012891;28;20110;-64
2023/08/20 01:32:49;;;;;;;7.20;1.90;;;25.20;99.90;;;;;;5012339;28;20045;-65
2023/08/20 01:35:16;;;;;;;8.65;2.03;;;25.20;99.90;;;;;;5012937;28;20033;-65
2023/08/20 01:37:42;;;;;;;8.52;2.53;;;25.20;99.90;;;;;;5013161;28;20101;-64
2023/08/20 01:40:10;;;;;;;7.13;2.58;;;25.20;99.90;;;;;;5012786;28;20113;-64
2023/08/20 01:42:39;;;;;;;10.98;2.25;;;25.20;99.90;;;;;;5013088;28;20361;-65
2023/08/20 01:45:06;;;;;;;10.13;2.22;;;25.20;99.90;;;;;;5012796;28;20048;-65
2023/08/20 01:47:32;;;;;;;8.30;2.80;;;25.20;99.90;;;;;;5012912;28;20455;-65
2023/08/20 01:49:58;;;;;;;7.00;2.05;;;25.20;99.90;;;;;;5012660;28;20076;-64
2023/08/20 01:52:24;;;;;;;15.20;3.58;;;25.20;99.90;;;;;;5011109;28;20050;-64
2023/08/20 01:54:50;;;;;;;11.38;2.42;;;25.10;99.90;;;;;;5012679;28;20025;-64
2023/08/20 01:57:15;;;;;;;10.18;2.53;;;25.20;99.90;;;;;;5011972;28;20388;-64
2023/08/20 01:59:41;;;;;;;7.57;1.83;;;25.20;99.90;;;;;;5012943;28;20500;-64
2023/08/20 02:02:06;;;;;;;9.18;2.20;;;25.20;99.90;;;;;;5012785;28;20032;-65
2023/08/20 02:04:33;;;;;;;7.85;2.38;;;25.20;99.90;;;;;;5011311;28;20340;-64
2023/08/20 02:06:59;;;;;;;6.68;2.05;;;25.20;99.90;;;;;;5012914;28;20053;-65
2023/08/20 02:09:24;;;;;;;6.43;1.80;;;25.20;99.90;;;;;;5012562;28;20097;-65
2023/08/20 02:11:51;;;;;;;12.10;2.13;;;25.20;99.90;;;;;;5011446;28;20133;-64
2023/08/20 02:14:17;;;;;;;6.13;2.42;;;25.20;99.90;;;;;;5012056;28;20034;-64
2023/08/20 02:16:42;;;;;;;6.20;1.73;;;25.10;99.90;;;;;;5012241;28;20070;-65
2023/08/20 02:19:08;;;;;;;8.90;1.95;;;25.20;99.90;;;;;;5011465;28;20468;-65
2023/08/20 02:21:34;;;;;;;5.03;2.05;;;25.20;99.90;;;;;;5012049;28;20844;-65
2023/08/20 02:23:59;;;;;;;6.35;1.80;;;25.10;99.90;;;;;;5012323;28;20026;-64
2023/08/20 02:26:25;;;;;;;7.30;2.17;;;25.20;99.90;;;;;;5012098;28;20022;-64
2023/08/20 02:28:50;;;;;;;5.80;1.98;;;25.20;99.90;;;;;;5012336;28;20058;-65
2023/08/20 02:31:16;;;;;;;7.22;2.47;;;25.20;99.90;;;;;;5011979;28;20045;-64
2023/08/20 02:33:41;;;;;;;6.38;2.15;;;25.10;99.90;;;;;;5011723;28;20061;-64
2023/08/20 02:36:07;;;;;;;7.63;2.30;;;25.10;99.90;;;;;;5011009;28;20053;-64
2023/08/20 02:38:33;;;;;;;9.45;2.42;;;25.10;99.90;;;;;;5011991;28;20025;-65
2023/08/20 02:40:58;;;;;;;6.47;1.65;;;25.10;99.90;;;;;;5011581;28;20033;-64
2023/08/20 02:43:24;;;;;;;6.32;2.03;;;25.20;99.90;;;;;;5011822;28;20026;-65
2023/08/20 02:45:50;;;;;;;7.03;2.00;;;25.10;99.90;;;;;;5011932;28;20026;-64
2023/08/20 02:48:15;;;;;;;8.48;2.20;;;25.10;99.90;;;;;;5011203;28;20432;-65
2023/08/20 02:50:41;;;;;;;8.48;1.80;;;25.20;99.90;;;;;;5011454;28;20022;-64
2023/08/20 02:53:07;;;;;;;8.90;2.10;;;25.10;99.90;;;;;;5011398;28;20057;-64
2023/08/20 02:55:33;;;;;;;8.13;2.28;;;25.20;99.90;;;;;;5011494;28;20034;-64
2023/08/20 02:57:59;;;;;;;6.65;2.22;;;25.10;99.90;;;;;;5011783;28;20018;-64
2023/08/20 03:00:24;;;;;;;8.10;2.08;;;25.10;99.90;;;;;;5011406;28;20026;-64
2023/08/20 03:02:50;;;;;;;9.70;1.90;;;25.20;99.90;;;;;;5011203;28;20029;-64
2023/08/20 03:05:17;;;;;;;11.75;1.95;;;25.10;99.90;;;;;;5011384;28;20026;-64
2023/08/20 03:07:43;;;;;;;10.57;2.28;;;25.20;99.90;;;;;;5011376;28;20029;-65
2023/08/20 03:10:09;;;;;;;9.70;2.42;;;25.20;99.90;;;;;;5010036;28;20024;-65
2023/08/20 03:12:34;;;;;;;10.63;2.50;;;25.20;99.90;;;;;;5011131;28;20042;-66
2023/08/20 03:15:00;;;;;;;14.75;2.45;;;25.20;99.90;;;;;;5011402;28;20029;-65
2023/08/20 03:17:26;;;;;;;9.95;2.53;;;25.20;99.90;;;;;;5011170;28;20040;-66
2023/08/20 03:19:57;;;;;;;6.13;2.08;;;25.20;99.90;;;;;;5010004;28;20100;-65
2023/08/20 03:22:23;;;;;;;7.70;1.90;;;25.10;99.90;;;;;;5010062;28;20026;-65
2023/08/20 03:24:49;;;;;;;7.57;2.08;;;25.20;99.90;;;;;;5011055;28;20022;-65
2023/08/20 03:27:15;;;;;;;9.57;2.65;;;25.20;99.90;;;;;;5009960;28;20024;-65
2023/08/20 03:29:41;;;;;;;8.43;2.20;;;25.20;99.90;;;;;;5011500;28;20489;-65
2023/08/20 03:32:06;;;;;;;6.72;2.55;;;25.20;99.90;;;;;;5010670;28;20046;-65
2023/08/20 03:34:32;;;;;;;6.55;1.92;;;25.20;99.90;;;;;;5011250;28;20472;-65
2023/08/20 03:36:58;;;;;;;5.65;1.70;;;25.20;99.90;;;;;;5010692;28;20080;-66
2023/08/20 03:39:23;;;;;;;10.30;2.60;;;25.20;99.90;;;;;;5010627;28;20506;-65
2023/08/20 03:41:50;;;;;;;8.82;1.98;;;25.20;99.90;;;;;;5009568;28;20018;-65
2023/08/20 03:44:16;;;;;;;6.60;1.80;;;25.20;99.90;;;;;;5009095;28;20014;-66
2023/08/20 03:46:41;;;;;;;7.72;1.90;;;25.20;99.90;;;;;;5009351;28;20033;-65
2023/08/20 03:49:07;;;;;;;7.80;2.45;;;25.20;99.90;;;;;;5009027;28;20109;-66
2023/08/20 03:51:32;;;;;;;9.15;2.10;;;25.10;99.90;;;;;;5007809;28;20041;-65
2023/08/20 03:53:58;;;;;;;8.63;2.05;;;25.10;99.90;;;;;;5008606;28;20491;-65
2023/08/20 03:56:24;;;;;;;10.63;2.15;;;25.20;99.90;;;;;;5009749;28;20022;-65
2023/08/20 03:58:50;;;;;;;5.57;1.83;;;25.10;99.90;;;;;;5009278;28;20033;-65
2023/08/20 04:01:16;;;;;;;5.35;2.05;;;25.10;99.90;;;;;;5008835;28;20453;-65
2023/08/20 04:03:41;;;;;;;6.28;1.98;;;25.20;99.90;;;;;;5008604;28;20137;-64
2023/08/20 04:06:07;;;;;;;7.65;1.83;;;25.20;99.90;;;;;;5007844;28;20032;-65
2023/08/20 04:08:32;;;;;;;8.25;1.98;;;25.20;99.90;;;;;;5008473;28;20429;-64
2023/08/20 04:10:58;;;;;;;6.35;1.95;;;25.20;99.90;;;;;;5008326;28;20104;-65
2023/08/20 04:13:23;;;;;;;12.73;2.35;;;25.20;99.90;;;;;;5009415;28;20103;-64
2023/08/20 04:15:49;;;;;;;5.38;1.90;;;25.20;99.90;;;;;;5010351;28;20108;-64
2023/08/20 04:18:15;;;;;;;9.50;2.00;;;25.20;99.90;;;;;;5009847;28;20024;-64
2023/08/20 04:20:40;;;;;;;7.72;1.85;;;25.20;99.90;;;;;;5009124;28;20053;-64
2023/08/20 04:23:06;;;;;;;6.10;1.65;;;25.20;99.90;;;;;;5010373;28;20037;-65
2023/08/20 04:25:32;;;;;;;7.80;2.00;;;25.20;99.90;;;;;;5009927;28;20029;-64
2023/08/20 04:27:57;;;;;;;6.28;1.88;;;25.20;99.90;;;;;;5009637;28;20025;-64
2023/08/20 04:30:23;;;;;;;5.20;1.38;;;25.20;99.90;;;;;;5010111;28;20022;-65
2023/08/20 04:32:48;;;;;;;7.47;1.48;;;25.20;99.90;;;;;;5009588;28;20045;-64
2023/08/20 04:35:14;;;;;;;6.60;1.52;;;25.20;99.90;;;;;;5009982;28;20025;-65
2023/08/20 04:37:40;;;;;;;7.63;1.67;;;25.20;99.90;;;;;;5009588;28;20037;-65
2023/08/20 04:40:07;;;;;;;10.88;2.13;;;25.10;99.90;;;;;;5009476;28;20030;-65
2023/08/20 04:42:33;;;;;;;8.98;2.00;;;25.10;99.90;;;;;;5009903;28;20144;-65
2023/08/20 04:44:58;;;;;;;6.90;1.70;;;25.10;99.90;;;;;;5009708;28;20113;-65
2023/08/20 04:47:24;;;;;;;9.00;2.15;;;25.10;99.90;;;;;;5009675;28;20037;-65
2023/08/20 04:49:50;;;;;;;9.82;1.73;;;25.20;99.90;;;;;;5009640;28;20081;-65
2023/08/20 04:52:15;;;;;;;8.65;1.95;;;25.20;99.90;;;;;;5008810;28;20097;-64
2023/08/20 04:54:41;;;;;;;9.10;1.90;;;25.20;99.90;;;;;;5009881;28;20054;-64
2023/08/20 04:57:07;;;;;;;6.72;2.00;;;25.20;99.90;;;;;;5009516;28;20427;-65
2023/08/20 04:59:32;;;;;;;7.10;1.98;;;25.20;99.90;;;;;;5008641;28;20026;-65
2023/08/20 05:01:58;;;;;;;9.00;2.30;;;25.20;99.90;;;;;;5009623;28;20038;-66
2023/08/20 05:04:24;;;;;;;8.43;2.30;;;25.20;99.90;;;;;;5009578;28;20049;-65
2023/08/20 05:06:50;;;;;;;11.50;2.20;;;25.20;99.90;;;;;;5009714;28;20018;-65
2023/08/20 05:09:16;;;;;;;6.70;1.90;;;25.20;99.90;;;;;;5009505;28;20076;-65
2023/08/20 05:11:41;;;;;;;7.93;1.80;;;25.20;99.90;;;;;;5008902;28;20408;-64
2023/08/20 05:14:07;;;;;;;11.40;1.83;;;25.20;99.90;;;;;;5008867;28;20025;-65
2023/08/20 05:16:33;;;;;;;9.05;1.55;;;25.20;99.90;;;;;;5009465;28;20038;-65
2023/08/20 05:18:58;;;;;;;13.88;2.05;;;25.20;99.90;;;;;;5009173;28;20034;-64
2023/08/20 05:21:24;;;;;;;12.10;1.83;;;25.20;99.90;;;;;;5009350;28;20568;-64
2023/08/20 05:23:49;;;;;;;10.77;2.67;;;25.10;99.90;;;;;;5009318;28;20022;-64
2023/08/20 05:26:15;;;;;;;10.82;2.75;;;25.20;99.90;;;;;;5009037;28;20029;-64
2023/08/20 05:28:41;;;;;;;12.68;2.35;;;25.20;99.90;;;;;;5009272;28;20032;-64
2023/08/20 05:31:06;;;;;;;8.63;2.13;;;25.20;99.90;;;;;;5009418;28;20037;-65
2023/08/20 05:33:32;;;;;;;8.23;1.77;;;25.20;99.90;;;;;;5009649;28;20030;-65
2023/08/20 05:35:59;;;;;;;8.20;2.22;;;25.20;99.90;;;;;;5009136;28;20022;-65
2023/08/20 05:38:24;;;;;;;8.52;2.38;;;25.20;99.90;;;;;;5009159;28;20452;-65
2023/08/20 05:40:50;;;;;;;8.52;1.98;;;25.20;99.90;;;;;;5009285;28;20022;-64
2023/08/20 05:43:16;;;;;;;10.68;2.92;;;25.20;99.90;;;;;;5009333;28;20029;-64
2023/08/20 05:45:41;;;;;;;6.35;1.83;;;25.10;99.90;;;;;;5010065;28;20026;-64
2023/08/20 05:48:07;;;;;;;11.32;2.05;;;25.10;99.90;;;;;;5010165;28;20113;-65
2023/08/20 05:50:33;;;;;;;9.05;2.10;;;25.20;99.90;;;;;;5009632;28;20030;-64
2023/08/20 05:53:00;;;;;;;14.57;2.40;;;25.10;99.90;;;;;;5009792;28;20121;-65
2023/08/20 05:55:26;;;;;;;10.90;2.13;;;25.10;99.90;;;;;;5010421;28;20018;-64
2023/08/20 05:57:51;;;;;;;8.60;1.80;;;25.10;99.90;;;;;;5012520;28;20075;-64
2023/08/20 06:00:17;;;;;;;8.20;2.20;;;25.10;99.90;;;;;;5015004;28;20108;-64
2023/08/20 06:02:43;;;;;;;11.10;2.42;;;25.20;99.90;;;;;;5011908;28;20073;-64
2023/08/20 06:05:09;;;;;;;8.40;2.50;;;25.20;99.90;;;;;;5014442;28;20084;-65
2023/08/20 06:07:35;;;;;;;8.80;2.13;;;25.20;99.90;;;;;;5015923;28;20022;-64
2023/08/20 06:10:01;;;;;;;8.48;1.95;;;25.20;99.90;;;;;;5016831;28;20026;-65
2023/08/20 06:12:26;;;;;;;15.07;2.72;;;25.20;99.90;;;;;;5016890;28;20239;-64
2023/08/20 06:14:52;;;;;;;8.63;1.90;;;25.20;99.90;;;;;;5018433;28;20084;-65
2023/08/20 06:17:17;;;;;;;8.00;2.42;;;25.20;99.90;;;;;;5017423;28;20026;-64
2023/08/20 06:19:44;;;;;;;7.07;2.22;;;25.20;99.90;;;;;;5017672;28;20136;-63
2023/08/20 06:22:12;;;;;;;7.30;1.60;;;25.20;99.90;;;;;;5016878;28;20037;-64
2023/08/20 06:24:37;;;;;;;8.00;1.90;;;25.20;99.90;;;;;;5017807;28;20033;-64
2023/08/20 06:27:03;;;;;;;8.80;2.45;;;25.20;99.90;;;;;;5016942;28;20025;-65
2023/08/20 06:29:29;;;;;;;7.43;2.80;;;25.20;99.90;;;;;;5016249;28;20606;-64
2023/08/20 06:31:55;;;;;;;8.13;1.55;;;25.20;99.90;;;;;;5015560;28;20484;-65
2023/08/20 06:34:21;;;;;;;6.68;2.10;;;25.20;99.90;;;;;;5017489;28;20029;-64
2023/08/20 06:36:47;;;;;;;17.60;2.60;;;25.10;99.90;;;;;;5018869;28;20034;-64
2023/08/20 06:39:15;;;;;;;13.52;4.20;;;24.90;99.90;;;;;;5018553;28;20033;-65
2023/08/20 06:41:41;;;;;;;26.40;3.95;;;24.30;98.30;;;;;;5016378;28;20026;-69
2023/08/20 06:44:06;;;;;;;25.83;4.13;;;24.00;99.50;;;;;;5015350;28;20049;-69
2023/08/20 06:46:32;;;;;;;11.88;2.45;;;24.20;99.90;;;;;;5013573;28;20026;-71
2023/08/20 06:48:58;;;;;;;15.02;3.05;;;24.30;99.70;;;;;;5012639;28;20026;-69
2023/08/20 06:51:25;;;;;;;22.95;3.42;;;24.30;99.50;;;;;;5012741;28;20037;-69
2023/08/20 06:53:50;;;;;;;15.20;2.90;;;24.40;99.10;;;;;;5012364;28;20092;-69
2023/08/20 06:56:16;;;;;;;22.00;3.30;;;24.40;99.30;;;;;;5012831;28;20022;-71
2023/08/20 06:58:42;;;;;;;12.25;3.20;;;24.50;99.90;;;;;;5011383;28;20018;-71
2023/08/20 07:01:08;;;;;;;17.23;2.60;;;24.50;99.90;;;;;;5009942;28;20037;-71
2023/08/20 07:03:43;;;;;;;12.60;2.50;;;24.60;99.90;;;;;;5010564;28;20396;-70
2023/08/20 07:06:10;;;;;;;9.45;2.65;;;24.60;99.90;;;;;;5010381;28;20343;-71
2023/08/20 07:08:39;;;;;;;10.52;2.55;;;24.60;99.90;;;;;;5010852;28;20026;-70
2023/08/20 07:11:04;;;;;;;13.48;2.50;;;24.60;99.90;;;;;;5009962;28;20037;-71
2023/08/20 07:13:30;;;;;;;12.80;3.15;;;24.60;99.70;;;;;;5011296;28;20440;-70
2023/08/20 07:15:56;;;;;;;10.90;2.88;;;24.60;99.80;;;;;;5010856;28;20116;-71
2023/08/20 07:18:22;;;;;;;9.43;2.67;;;24.60;99.80;;;;;;5011065;28;20034;-71
2023/08/20 07:20:47;;;;;;;12.02;2.80;;;24.70;99.80;;;;;;5010637;28;20408;-70
2023/08/20 07:23:13;;;;;;;8.75;2.40;;;24.70;99.80;;;;;;5010723;28;20030;-71
2023/08/20 07:25:40;;;;;;;12.35;2.60;;;24.70;99.70;;;;;;5011413;28;20026;-69
2023/08/20 07:28:08;;;;;;;9.20;2.22;;;24.70;99.60;;;;;;5010213;28;20481;-69
2023/08/20 07:30:34;;;;;;;11.88;2.50;;;24.70;99.60;;;;;;5010878;28;20037;-69
2023/08/20 07:32:59;;;;;;;8.63;2.00;;;24.70;99.50;;;;;;5010544;28;20033;-69
2023/08/20 07:35:26;;;;;;;11.07;2.30;;;24.80;99.50;;;;;;5010999;28;20463;-69
2023/08/20 07:37:52;;;;;;;9.15;2.67;;;24.70;99.30;;;;;;5010977;28;20014;-69
2023/08/20 07:40:18;;;;;;;6.32;2.10;;;24.80;99.40;;;;;;5008866;28;20525;-69
2023/08/20 07:42:43;;;;;;;19.50;3.13;;;24.80;99.00;;;;;;5010899;28;20123;-72
2023/08/20 07:45:10;;;;;;;11.65;2.72;;;24.90;98.30;;;;;;5009683;28;20045;-70
2023/08/20 07:47:36;;;;;;;8.02;2.13;;;24.80;98.30;;;;;;5010301;28;20038;-70
2023/08/20 07:50:05;;;;;;;11.10;2.22;;;24.80;98.00;;;;;;5008846;28;20030;-71
2023/08/20 07:52:32;;;;;;;7.57;1.88;;;24.80;97.70;;;;;;5008864;28;20050;-70
2023/08/20 07:54:58;;;;;;;13.02;2.72;;;24.90;98.50;;;;;;5008904;28;20033;-70
2023/08/20 07:57:23;;;;;;;11.23;3.30;;;24.90;98.20;;;;;;5008902;28;20018;-72
2023/08/20 07:59:52;;;;;;;7.70;2.20;;;24.90;98.30;;;;;;5008910;28;20029;-71
2023/08/20 08:02:18;;;;;;;10.23;1.85;;;24.90;98.00;;;;;;5007486;28;20041;-72
2023/08/20 08:04:44;;;;;;;6.00;1.85;;;24.90;98.00;;;;;;5010324;28;20033;-69
2023/08/20 08:07:11;;;;;;;6.40;2.13;;;25.00;97.80;;;;;;5008619;28;20018;-72
2023/08/20 08:09:36;;;;;;;8.77;1.85;;;25.00;97.90;;;;;;5015403;28;20398;-72
2023/08/20 08:12:03;;;;;;;8.18;1.98;;;25.10;98.00;;;;;;5029664;28;20033;-71
2023/08/20 08:14:28;;;;;;;12.07;2.58;;;25.10;97.90;;;;;;5030155;28;20028;-71
2023/08/20 08:16:54;;;;;;;7.75;2.25;;;25.10;97.70;;;;;;5030386;28;20547;-71
2023/08/20 08:19:20;;;;;;;8.38;2.45;;;25.10;97.50;;;;;;5028931;28;20056;-71
2023/08/20 08:21:46;;;;;;;7.78;1.85;;;25.20;97.60;;;;;;5024707;28;20411;-70
2023/08/20 08:24:12;;;;;;;6.35;1.45;;;25.20;97.50;;;;;;5026284;28;20014;-71
2023/08/20 08:26:39;;;;;;;4.97;1.77;;;25.20;97.40;;;;;;5012975;28;20424;-71
2023/08/20 08:29:06;;;;;;;4.80;1.80;;;25.20;97.40;;;;;;5016200;28;20053;-71
2023/08/20 08:31:32;;;;;;;5.57;1.70;;;25.20;97.30;;;;;;5009768;28;20394;-71
2023/08/20 08:33:57;;;;;;;9.27;2.17;;;25.20;97.20;;;;;;5007813;28;20030;-70
2023/08/20 08:36:24;;;;;;;7.63;1.52;;;25.20;97.20;;;;;;5009890;28;20026;-70
2023/08/20 08:38:51;;;;;;;5.43;1.60;;;25.30;97.10;;;;;;5009646;28;20034;-70
2023/08/20 08:41:21;;;;;;;7.63;2.03;;;25.30;97.20;;;;;;5009998;28;20526;-70
2023/08/20 08:43:48;;;;;;;7.55;1.83;;;25.30;97.10;;;;;;5009920;28;20014;-70
2023/08/20 08:46:14;;;;;;;6.38;1.45;;;25.30;97.10;;;;;;5008067;28;20022;-69
2023/08/20 08:48:42;;;;;;;7.28;2.05;;;25.40;97.10;;;;;;5009842;28;20076;-70
2023/08/20 08:51:08;;;;;;;4.65;1.63;;;25.40;97.00;;;;;;5009934;28;20062;-70
2023/08/20 08:53:35;;;;;;;4.03;1.42;;;25.40;96.90;;;;;;5009685;28;20140;-72
2023/08/20 08:56:03;;;;;;;5.47;1.77;;;25.40;96.90;;;;;;5009741;28;20427;-72
2023/08/20 08:58:29;;;;;;;6.20;1.95;;;25.40;96.90;;;;;;5009748;28;20033;-71
2023/08/20 09:00:55;;;;;;;5.18;1.33;;;25.50;96.90;;;;;;5009765;28;20080;-71
2023/08/20 09:03:21;;;;;;;5.18;1.50;;;25.50;96.80;;;;;;5009493;28;20022;-70
2023/08/20 09:05:54;;;;;;;5.88;1.83;;;25.50;96.70;;;;;;5009585;28;20021;-71
2023/08/20 09:08:27;;;;;;;5.22;1.50;;;25.50;96.60;;;;;;5009876;28;20029;-71
2023/08/20 09:10:53;;;;;;;7.53;1.60;;;25.60;96.60;;;;;;5008818;28;20030;-70
2023/08/20 09:13:24;;;;;;;7.13;1.48;;;25.60;96.50;;;;;;5009531;28;20538;-71
2023/08/20 09:15:54;;;;;;;4.20;1.30;;;25.60;96.30;;;;;;5009565;28;20033;-71
2023/08/20 09:18:19;;;;;;;;;;;25.70;96.20;;;;;;5009911;28;20030;-71
2023/08/20 09:20:47;;;;;;;6.63;1.88;;;25.70;96.30;;;;;;5008338;28;19905;-72
2023/08/20 09:23:15;;;;;;;5.32;1.70;;;25.70;96.20;;;;;;5008994;28;20091;-71
2023/08/20 09:25:43;;;;;;;5.68;1.30;;;25.80;96.20;;;;;;5008323;28;20033;-71
2023/08/20 09:28:09;;;;;;;5.68;1.10;;;25.90;96.10;;;;;;5009334;28;20046;-71
2023/08/20 09:30:35;;;;;;;9.05;2.45;;;26.00;95.80;;;;;;5009428;28;20072;-71
2023/08/20 09:33:19;;;;;;;5.43;1.45;;;26.40;95.30;;;;;;5007668;28;20033;-71
2023/08/20 09:35:56;;;;;;;6.38;1.48;;;27.50;93.40;;;;;;5009643;28;20065;-71
2023/08/20 09:38:23;;;;;;;3.88;1.10;;;28.60;91.50;;;;;;5007265;28;20077;-71
2023/08/20 09:40:56;;;;;;;4.85;1.20;;;29.40;90.20;;;;;;5008731;28;20034;-71
2023/08/20 09:43:27;;;;;;;3.47;1.05;;;30.00;87.80;;;;;;5007807;28;20025;-71
2023/08/20 09:45:55;;;;;;;3.85;1.20;;;30.50;85.70;;;;;;5029973;28;20032;-72
2023/08/20 09:48:21;;;;;;;4.22;1.00;;;30.90;83.80;;;;;;5030813;28;20029;-70
2023/08/20 09:50:57;;;;;;;5.55;1.30;;;31.40;82.20;;;;;;5031618;28;20033;-71
2023/08/20 09:53:33;;;;;;;6.47;1.60;;;31.70;80.30;;;;;;5031433;28;20697;-71
2023/08/20 09:56:13;;;;;;;8.65;2.03;;;32.00;78.50;;;;;;5030184;28;20026;-71
2023/08/20 09:58:41;;;;;;;3.50;1.23;;;32.30;76.90;;;;;;5030976;28;20024;-71
2023/08/20 10:01:07;;;;;;;4.55;1.30;;;32.60;75.80;;;;;;5031136;28;20033;-70
2023/08/20 10:03:33;;;;;;;5.07;1.20;;;32.80;74.50;;;;;;5030896;28;20032;-71
2023/08/20 10:06:01;;;;;;;6.15;1.67;;;32.90;73.20;;;;;;5030814;28;20017;-71
2023/08/20 10:08:27;;;;;;;2.72;1.35;;;33.10;72.60;;;;;;5029236;28;20113;-72
2023/08/20 10:10:53;;;;;;;4.75;1.10;;;33.00;72.10;;;;;;5030533;28;20025;-70
2023/08/20 10:13:19;;;;;;;4.80;1.27;;;32.30;73.40;;;;;;5030938;28;20075;-67
2023/08/20 10:15:46;;;;;;;11.93;1.50;;;31.30;77.40;;;;;;5032873;28;20099;-68
2023/08/20 10:18:11;;;;;;;9.10;1.50;;;30.70;75.90;;;;;;5031885;28;20021;-68
2023/08/20 10:20:40;;;;;;;5.93;1.13;;;30.10;76.90;;;;;;5031084;28;20047;-68
2023/08/20 10:23:06;;;;;;;13.93;1.80;;;29.50;77.70;;;;;;5030799;28;20415;-69
2023/08/20 10:25:41;;;;;;;8.27;1.40;;;29.10;80.00;;;;;;5032505;28;20067;-70
2023/08/20 10:28:20;;;;;;;8.95;1.30;;;28.70;80.70;;;;;;5031963;28;20088;-72
2023/08/20 10:31:11;;;;;;;13.18;2.20;;;28.40;81.10;;;;;;5031469;28;20120;-70
2023/08/20 10:33:49;;;;;;;10.30;1.10;;;28.10;81.90;;;;;;5031737;28;20075;-73
2023/08/20 10:36:18;;;;;;;7.97;1.23;;;27.80;81.70;;;;;;5028919;28;20036;-69
2023/08/20 10:38:45;;;;;;;8.10;1.30;;;27.50;83.20;;;;;;5029171;28;20029;-69
2023/08/20 10:41:11;;;;;;;9.45;1.30;;;27.20;84.10;;;;;;5030211;28;20339;-67
2023/08/20 10:43:39;;;;;;;12.63;2.25;;;27.00;85.50;;;;;;5030297;28;20033;-67
2023/08/20 10:46:16;;;;;;;7.53;1.10;;;26.90;86.80;;;;;;5030204;28;20025;-68
2023/08/20 10:49:12;;;;;;;5.80;1.10;;;26.80;87.50;;;;;;5030457;28;20013;-67
2023/08/20 10:51:39;;;;;;;7.88;1.50;;;26.80;87.80;;;;;;5030637;28;20049;-69
2023/08/20 10:54:07;;;;;;;8.20;1.00;;;26.70;88.40;;;;;;5030833;28;20049;-68
2023/08/20 10:56:49;;;;;;;4.72;1.23;;;26.70;89.30;;;;;;5029480;28;20025;-69
2023/08/20 10:59:18;;;;;;;6.68;1.05;;;26.70;90.00;;;;;;5031272;28;20029;-70
2023/08/20 11:01:46;;;;;;;7.00;1.25;;;26.60;90.30;;;;;;5030112;28;20476;-70
2023/08/20 11:04:12;;;;;;;7.88;1.38;;;26.60;90.50;;;;;;5031391;28;20065;-70
2023/08/20 11:06:39;;;;;;;4.78;1.27;;;26.60;90.60;;;;;;5031272;28;20038;-70
2023/08/20 11:09:08;;;;;;;10.18;1.42;;;26.60;90.80;;;;;;5031299;28;20018;-70
2023/08/20 11:11:33;;;;;;;5.90;1.17;;;26.60;90.90;;;;;;5031560;28;20046;-70
2023/08/20 11:14:06;;;;;;;3.22;0.93;;;26.60;91.10;;;;;;5031404;28;20040;-70
2023/08/20 11:16:32;;;;;;;4.10;0.80;;;26.60;91.10;;;;;;5031446;28;20028;-70
2023/08/20 11:18:57;;;;;;;3.88;0.95;;;26.60;91.20;;;;;;5031033;28;20101;-70
2023/08/20 11:21:23;;;;;;;5.57;0.90;;;26.60;91.30;;;;;;5031362;28;20094;-69
2023/08/20 11:23:49;;;;;;;5.40;1.08;;;26.60;91.40;;;;;;5031066;28;20037;-70
2023/08/20 11:26:15;;;;;;;3.70;1.17;;;26.60;91.50;;;;;;5030338;28;20026;-70
2023/08/20 11:28:45;;;;;;;4.78;0.80;;;26.60;91.60;;;;;;5030856;28;20044;-69
2023/08/20 11:31:10;;;;;;;6.38;1.08;;;26.60;91.60;;;;;;5031051;28;20045;-70
2023/08/20 11:33:36;;;;;;;5.32;1.13;;;26.60;91.70;;;;;;5030986;28;20030;-68
2023/08/20 11:36:02;;;;;;;2.50;0.90;;;26.60;91.70;;;;;;5029875;28;20091;-69
2023/08/20 11:38:28;;;;;;;3.15;0.70;;;26.60;91.80;;;;;;5030564;28;20056;-68
2023/08/20 11:40:53;;;;;;;4.45;0.85;;;26.60;91.90;;;;;;5030618;28;20017;-69
2023/08/20 11:43:19;;;;;;;3.58;0.77;;;26.60;91.90;;;;;;5030925;28;20109;-68
2023/08/20 11:45:46;;;;;;;4.28;0.70;;;26.60;92.00;;;;;;5030554;28;20040;-68
2023/08/20 11:48:13;;;;;;;6.28;1.10;;;26.60;92.00;;;;;;5030569;28;20033;-68
2023/08/20 11:50:38;;;;;;;5.18;1.10;;;26.60;92.00;;;;;;5028973;28;20114;-67
2023/08/20 11:53:04;;;;;;;3.58;0.70;;;26.60;92.10;;;;;;5030497;28;20132;-68
2023/08/20 11:55:30;;;;;;;9.10;0.73;;;26.60;92.00;;;;;;5028782;28;20021;-68
2023/08/20 11:57:55;;;;;;;7.47;1.13;;;26.60;91.80;;;;;;5030441;28;20025;-69
2023/08/20 12:00:26;;;;;;;7.13;0.98;;;26.60;92.00;;;;;;5030601;28;20024;-69
2023/08/20 12:02:55;;;;;;;3.67;0.90;;;26.60;91.90;;;;;;5030192;28;20072;-70
2023/08/20 12:05:28;;;;;;;4.13;1.00;;;26.60;92.00;;;;;;5030548;28;20044;-69
2023/08/20 12:07:58;;;;;;;5.72;1.13;;;26.70;92.10;;;;;;5029816;28;20016;-69
2023/08/20 12:10:24;;;;;;;8.40;1.33;;;26.70;92.20;;;;;;5030899;28;20060;-68
2023/08/20 12:12:49;;;;;;;8.82;1.33;;;26.70;91.10;;;;;;5028682;28;20037;-68
2023/08/20 12:15:15;;;;;;;4.95;1.15;;;26.70;90.90;;;;;;5030069;28;20387;-68
2023/08/20 12:17:40;;;;;;;5.13;0.82;;;26.60;90.60;;;;;;5029932;28;20026;-69
2023/08/20 12:20:12;;;;;;;4.47;0.93;;;26.60;90.40;;;;;;5030014;28;20112;-67
2023/08/20 12:22:40;;;;;;;4.97;1.15;;;26.50;90.30;;;;;;5030521;28;20047;-68
2023/08/20 12:25:06;;;;;;;5.63;1.02;;;26.50;90.20;;;;;;5030077;28;20022;-68
2023/08/20 12:27:33;;;;;;;5.18;0.90;;;26.50;89.70;;;;;;5029883;28;20027;-68
2023/08/20 12:29:59;;;;;;;4.45;1.00;;;26.50;89.90;;;;;;5029259;28;20061;-68
2023/08/20 12:32:24;;;;;;;3.95;0.90;;;26.40;89.50;;;;;;5028317;28;20569;-69
2023/08/20 12:34:50;;;;;;;4.15;1.08;;;26.40;89.20;;;;;;5028694;28;20025;-68
2023/08/20 12:37:16;;;;;;;4.93;1.13;;;26.40;89.00;;;;;;5028764;28;20017;-68
2023/08/20 12:39:41;;;;;;;2.72;0.70;;;26.40;89.10;;;;;;5028954;28;20024;-67
2023/08/20 12:42:08;;;;;;;4.95;1.15;;;26.40;88.60;;;;;;5028591;28;20063;-67
2023/08/20 12:44:33;;;;;;;4.95;0.80;;;26.40;88.60;;;;;;5029162;28;20040;-67